Time;durP1;ratioP1;P1;durP2;ratioP2;P2;SDS_P1;SDS_P2;PMS_P1;PMS_P2;Temp;Humidity;BMP_temperature;BMP_pressure;BME280_temperature;BME280_humidity;BME280_pressure;Samples;Min_cycle;Max_cycle;Signal;HPM_P1;HPM_P2
2023/06/27 00:06:53;;;;;;;7.93;4.80;;;;;;;;;;4966123;28;20210;-70
2023/06/27 00:13:20;;;;;;;5.80;4.97;;;;;;;;;;4946362;29;20454;-70
2023/06/27 00:23:57;;;;;;;6.20;5.23;;;;;;;;;;4927645;29;20185;-69
2023/06/27 00:30:24;;;;;;;5.97;5.13;;;;;;;;;;4927370;29;20253;-69
2023/06/27 00:36:50;;;;;;;6.37;4.80;;;;;;;;;;4949271;29;20734;-69
2023/06/27 00:43:55;;;;;;;5.93;5.13;;;;;;;;;;4815964;29;20205;-69
2023/06/27 01:30:59;;;;;;;9.77;6.30;;;;;;;;;;4949802;29;20236;-69
2023/06/27 01:37:25;;;;;;;9.53;7.00;;;;;;;;;;4968259;28;20236;-69
2023/06/27 01:43:52;;;;;;;10.80;6.93;;;;;;;;;;4987990;28;20170;-69
2023/06/27 01:50:18;;;;;;;10.27;6.97;;;;;;;;;;4974386;28;20230;-70
2023/06/27 01:56:44;;;;;;;10.67;6.37;;;;;;;;;;4977003;28;20231;-70
2023/06/27 02:03:10;;;;;;;9.27;6.10;;;;;;;;;;4982438;28;20234;-71
2023/06/27 02:09:37;;;;;;;7.13;4.53;;;;;;;;;;5009563;28;20202;-70
2023/06/27 02:16:04;;;;;;;4.27;2.50;;;;;;;;;;5009127;28;20207;-69
2023/06/27 02:22:31;;;;;;;4.40;2.10;;;;;;;;;;5009433;28;20171;-69
2023/06/27 02:37:08;;;;;;;5.60;2.77;;;;;;;;;;4950953;29;20233;-69
2023/06/27 02:43:34;;;;;;;4.70;2.60;;;;;;;;;;4925028;28;20352;-68
2023/06/27 02:50:00;;;;;;;4.53;2.53;;;;;;;;;;4944898;28;20249;-68
2023/06/27 02:56:30;;;;;;;5.27;2.20;;;;;;;;;;4931499;29;20197;-67
2023/06/27 03:02:58;;;;;;;6.10;2.27;;;;;;;;;;4959418;28;20265;-68
2023/06/27 03:09:27;;;;;;;3.40;2.13;;;;;;;;;;4949327;29;20205;-68
2023/06/27 03:15:54;;;;;;;4.57;2.80;;;;;;;;;;4949044;28;20196;-70
2023/06/27 03:26:57;;;;;;;3.80;3.20;;;;;;;;;;4890605;29;20302;-70
2023/06/27 03:49:05;;;;;;;9.30;4.03;;;;;;;;;;4946932;29;20220;-68
2023/06/27 03:55:50;;;;;;;7.70;3.40;;;;;;;;;;4925511;29;20198;-68
2023/06/27 04:22:13;;;;;;;9.73;3.73;;;;;;;;;;4825825;29;20325;-68
2023/06/27 04:33:13;;;;;;;9.00;3.63;;;;;;;;;;4844483;29;20334;-69
2023/06/27 04:44:16;;;;;;;9.10;3.70;;;;;;;;;;4889956;29;20266;-69
2023/06/27 04:54:34;;;;;;;11.60;3.70;;;;;;;;;;4874548;29;20326;-68
2023/06/27 05:04:59;;;;;;;9.03;3.23;;;;;;;;;;4799556;29;20267;-68
2023/06/27 05:15:18;;;;;;;9.83;3.37;;;;;;;;;;4913371;29;20236;-68
2023/06/27 05:21:44;;;;;;;6.30;2.60;;;;;;;;;;4971066;28;20183;-67
2023/06/27 05:28:11;;;;;;;6.67;2.90;;;;;;;;;;4971751;28;20240;-67
2023/06/27 05:39:15;;;;;;;8.47;2.60;;;;;;;;;;4946459;28;20189;-68
2023/06/27 05:49:33;;;;;;;7.67;2.87;;;;;;;;;;4948095;28;20721;-67
2023/06/27 05:59:58;;;;;;;7.90;2.73;;;;;;;;;;4929908;29;20234;-67
2023/06/27 06:17:28;;;;;;;5.43;2.43;;;;;;;;;;4971041;28;20231;-68
2023/06/27 06:23:54;;;;;;;7.57;3.00;;;;;;;;;;4990363;28;20219;-68
2023/06/27 06:30:20;;;;;;;6.53;2.50;;;;;;;;;;4990110;28;20308;-68
2023/06/27 06:40:53;;;;;;;6.30;2.60;;;;;;;;;;5010070;28;20163;-68
2023/06/27 06:51:49;;;;;;;8.03;2.30;;;;;;;;;;4976557;28;20363;-67
2023/06/27 06:58:15;;;;;;;5.20;2.10;;;;;;;;;;4986753;28;20175;-67
2023/06/27 07:04:41;;;;;;;8.53;2.40;;;;;;;;;;4931637;29;20284;-67
2023/06/27 07:11:10;;;;;;;4.47;1.90;;;;;;;;;;4960599;28;20198;-68
2023/06/27 07:17:35;;;;;;;7.53;2.00;;;;;;;;;;4989344;28;20207;-68
2023/06/27 07:24:01;;;;;;;7.40;1.60;;;;;;;;;;4988794;28;20299;-67
2023/06/27 07:30:27;;;;;;;4.53;1.57;;;;;;;;;;4988792;28;20223;-67
2023/06/27 07:41:00;;;;;;;5.60;1.57;;;;;;;;;;4988767;28;20231;-67
2023/06/27 07:47:26;;;;;;;4.93;1.63;;;;;;;;;;4988754;28;20920;-67
2023/06/27 07:54:19;;;;;;;3.33;1.20;;;;;;;;;;4988360;28;20323;-67
2023/06/27 08:00:49;;;;;;;3.37;1.30;;;;;;;;;;4988198;28;20260;-68
2023/06/27 08:07:20;;;;;;;4.40;1.30;;;;;;;;;;4957202;28;20220;-67
2023/06/27 08:13:47;;;;;;;8.07;1.77;;;;;;;;;;5007828;28;20277;-67
2023/06/27 08:20:18;;;;;;;4.93;1.40;;;;;;;;;;5007795;28;20179;-67
2023/06/27 08:26:46;;;;;;;4.83;1.30;;;;;;;;;;5008086;28;20195;-67
2023/06/27 08:33:14;;;;;;;6.03;1.20;;;;;;;;;;5007622;28;20261;-67
2023/06/27 08:44:19;;;;;;;4.23;1.50;;;;;;;;;;4985125;28;20211;-67
2023/06/27 08:50:45;;;;;;;3.47;1.20;;;;;;;;;;5007736;28;20990;-67
2023/06/27 08:57:13;;;;;;;2.97;0.90;;;;;;;;;;4975329;28;20227;-67
2023/06/27 09:03:40;;;;;;;4.40;1.10;;;;;;;;;;4946960;28;20286;-67
2023/06/27 09:10:08;;;;;;;3.93;1.30;;;;;;;;;;5007062;28;20670;-67
2023/06/27 09:16:34;;;;;;;5.57;1.10;;;;;;;;;;5007792;28;20275;-68
2023/06/27 09:23:13;;;;;;;1.90;0.90;;;;;;;;;;5009020;28;20203;-66
2023/06/27 09:29:39;;;;;;;6.60;1.23;;;;;;;;;;5011004;28;20594;-66
2023/06/27 09:36:07;;;;;;;7.23;1.70;;;;;;;;;;5010857;28;20554;-67
2023/06/27 09:42:34;;;;;;;2.77;1.13;;;;;;;;;;4978278;28;20698;-68
2023/06/27 09:53:12;;;;;;;5.53;1.40;;;;;;;;;;4964770;28;20243;-67
2023/06/27 09:59:39;;;;;;;5.90;1.50;;;;;;;;;;4990787;28;20883;-67
2023/06/27 10:06:07;;;;;;;7.03;1.70;;;;;;;;;;4990198;28;20175;-67
2023/06/27 10:12:38;;;;;;;3.80;1.60;;;;;;;;;;4971001;28;20204;-67
2023/06/27 10:19:07;;;;;;;3.87;1.30;;;;;;;;;;4970272;28;20168;-67
2023/06/27 10:25:34;;;;;;;5.37;1.73;;;;;;;;;;4970625;28;20248;-67
2023/06/27 10:32:00;;;;;;;2.70;1.10;;;;;;;;;;4938548;28;20220;-67
2023/06/27 10:38:34;;;;;;;3.17;1.37;;;;;;;;;;4970417;28;20168;-67
2023/06/27 10:45:01;;;;;;;3.17;1.40;;;;;;;;;;4938167;28;20592;-67
2023/06/27 10:55:41;;;;;;;5.10;2.00;;;;;;;;;;4989158;28;20263;-67
2023/06/27 11:02:19;;;;;;;3.90;2.10;;;;;;;;;;4989397;28;20176;-67
2023/06/27 11:08:45;;;;;;;6.30;2.10;;;;;;;;;;4989188;28;20179;-67
2023/06/27 11:15:12;;;;;;;4.13;2.40;;;;;;;;;;4989006;28;20183;-66
2023/06/27 11:25:47;;;;;;;3.07;1.77;;;;;;;;;;5010740;28;20562;-66
2023/06/27 11:32:15;;;;;;;4.50;2.00;;;;;;;;;;5010777;28;20605;-67
2023/06/27 11:38:41;;;;;;;4.80;2.13;;;;;;;;;;4997137;28;20184;-66
2023/06/27 11:45:10;;;;;;;7.47;2.60;;;;;;;;;;5010357;28;20665;-67
2023/06/27 11:55:40;;;;;;;8.27;3.00;;;;;;;;;;4996454;28;20268;-67
2023/06/27 12:02:07;;;;;;;7.10;2.63;;;;;;;;;;5002843;28;20740;-66
2023/06/27 12:08:34;;;;;;;9.57;2.90;;;;;;;;;;4963956;28;20574;-68
2023/06/27 12:15:12;;;;;;;11.87;3.03;;;;;;;;;;4979003;28;20582;-68
2023/06/27 12:21:39;;;;;;;9.13;3.30;;;;;;;;;;4977569;28;20577;-67
2023/06/27 12:28:06;;;;;;;8.17;3.43;;;;;;;;;;4976932;28;20211;-68
2023/06/27 12:39:03;;;;;;;5.93;2.70;;;;;;;;;;4975897;28;20247;-67
2023/06/27 12:45:32;;;;;;;13.43;3.47;;;;;;;;;;4972450;28;20227;-67
2023/06/27 12:56:04;;;;;;;10.13;3.40;;;;;;;;;;4956148;28;20668;-67
2023/06/27 13:02:31;;;;;;;8.70;3.77;;;;;;;;;;4957442;28;20219;-67
2023/06/27 13:13:38;;;;;;;11.47;3.73;;;;;;;;;;4896447;28;20260;-68
2023/06/27 13:24:04;;;;;;;8.23;2.80;;;;;;;;;;4916912;28;20631;-67
2023/06/27 13:34:35;;;;;;;11.03;3.50;;;;;;;;;;4919721;28;20237;-67
2023/06/27 13:41:03;;;;;;;6.97;2.93;;;;;;;;;;4943311;28;20220;-68
2023/06/27 13:47:31;;;;;;;11.17;2.83;;;;;;;;;;4942774;28;20312;-67
2023/06/27 13:58:09;;;;;;;7.80;2.23;;;;;;;;;;4961846;28;20219;-68
2023/06/27 14:04:37;;;;;;;6.63;2.07;;;;;;;;;;4927897;28;20219;-68
2023/06/27 14:11:03;;;;;;;7.47;2.30;;;;;;;;;;4960017;28;20227;-67
2023/06/27 14:28:24;;;;;;;6.33;2.20;;;;;;;;;;4957673;28;20241;-67
2023/06/27 14:34:50;;;;;;;7.40;2.60;;;;;;;;;;4969321;28;20226;-67
2023/06/27 14:41:18;;;;;;;6.57;2.63;;;;;;;;;;4952167;28;20214;-67
2023/06/27 14:47:44;;;;;;;6.47;2.57;;;;;;;;;;4959991;28;20298;-67
2023/06/27 14:58:10;;;;;;;9.33;2.63;;;;;;;;;;4978925;28;20219;-67
2023/06/27 15:04:36;;;;;;;7.87;2.80;;;;;;;;;;4979111;28;20242;-67
2023/06/27 15:11:13;;;;;;;5.97;2.40;;;;;;;;;;4978900;28;20362;-67
2023/06/27 15:17:42;;;;;;;8.70;2.93;;;;;;;;;;4978304;28;20709;-68
2023/06/27 15:24:08;;;;;;;6.37;2.10;;;;;;;;;;4979771;28;20817;-67
2023/06/27 15:30:35;;;;;;;8.70;2.53;;;;;;;;;;4966275;28;20299;-67
2023/06/27 15:37:13;;;;;;;6.93;1.80;;;;;;;;;;4979226;28;20258;-67
2023/06/27 15:43:43;;;;;;;7.17;2.30;;;;;;;;;;4978349;28;20278;-67
2023/06/27 15:50:09;;;;;;;7.87;1.90;;;;;;;;;;4978639;28;20223;-67
2023/06/27 16:00:49;;;;;;;7.80;2.30;;;;;;;;;;4979342;28;20219;-67
2023/06/27 16:07:18;;;;;;;10.13;2.07;;;;;;;;;;4978459;28;20220;-67
2023/06/27 16:13:45;;;;;;;7.97;2.40;;;;;;;;;;4971429;28;20318;-68
2023/06/27 16:20:11;;;;;;;8.23;2.67;;;;;;;;;;4977424;28;20740;-68
2023/06/27 16:26:37;;;;;;;10.10;2.33;;;;;;;;;;4978613;28;20258;-67
2023/06/27 16:33:03;;;;;;;6.37;1.80;;;;;;;;;;4972490;28;20296;-67
2023/06/27 16:39:29;;;;;;;5.53;1.80;;;;;;;;;;4981942;28;20291;-67
2023/06/27 16:45:56;;;;;;;10.53;1.93;;;;;;;;;;4981913;28;20238;-67
2023/06/27 16:52:23;;;;;;;5.67;2.20;;;;;;;;;;4982327;28;20227;-68
2023/06/27 17:03:03;;;;;;;8.37;1.90;;;;;;;;;;4963673;28;20267;-68
2023/06/27 17:09:29;;;;;;;4.40;1.70;;;;;;;;;;4954122;28;20588;-67
2023/06/27 17:15:56;;;;;;;7.50;2.20;;;;;;;;;;4962778;28;20732;-67
2023/06/27 17:22:22;;;;;;;5.17;1.63;;;;;;;;;;4961454;28;20371;-68
2023/06/27 17:28:50;;;;;;;10.30;1.97;;;;;;;;;;4955342;28;20209;-68
2023/06/27 17:35:16;;;;;;;6.03;1.60;;;;;;;;;;4961408;28;20314;-67
2023/06/27 17:42:19;;;;;;;9.23;2.50;;;;;;;;;;4990857;28;21015;-67
2023/06/27 17:48:49;;;;;;;7.10;1.90;;;;;;;;;;4990897;28;20215;-67
2023/06/27 17:55:16;;;;;;;6.70;2.37;;;;;;;;;;4990661;28;20216;-67
2023/06/27 18:01:44;;;;;;;9.77;2.33;;;;;;;;;;5010395;28;20295;-68
2023/06/27 18:08:15;;;;;;;5.77;2.20;;;;;;;;;;4994568;28;20229;-67
2023/06/27 18:14:42;;;;;;;8.23;2.07;;;;;;;;;;4990428;28;20272;-68
2023/06/27 18:21:19;;;;;;;7.73;2.47;;;;;;;;;;4990129;28;20216;-67
2023/06/27 18:27:48;;;;;;;6.63;1.90;;;;;;;;;;4990374;28;20180;-67
2023/06/27 18:34:15;;;;;;;7.87;1.97;;;;;;;;;;4990002;28;20568;-67
2023/06/27 18:40:45;;;;;;;4.83;2.03;;;;;;;;;;4965654;28;21101;-67
2023/06/27 18:47:11;;;;;;;7.60;2.20;;;;;;;;;;4989717;28;20178;-67
2023/06/27 18:53:38;;;;;;;9.37;2.47;;;;;;;;;;4990103;28;20296;-67
2023/06/27 19:08:59;;;;;;;7.93;2.43;;;;;;;;;;4901137;29;20222;-67
2023/06/27 19:15:25;;;;;;;9.37;2.90;;;;;;;;;;4906734;28;20330;-68
2023/06/27 19:25:56;;;;;;;7.57;2.17;;;;;;;;;;4916644;28;20281;-69
2023/06/27 19:32:32;;;;;;;6.70;2.10;;;;;;;;;;4947250;28;20627;-70
2023/06/27 19:39:22;;;;;;;9.10;2.40;;;;;;;;;;4956089;28;20234;-69
2023/06/27 19:45:49;;;;;;;9.57;2.87;;;;;;;;;;4904467;29;20235;-67
2023/06/27 19:52:19;;;;;;;7.87;2.30;;;;;;;;;;4988377;28;20695;-67
2023/06/27 20:02:44;;;;;;;7.63;2.50;;;;;;;;;;4928673;28;20365;-67
2023/06/27 20:09:45;;;;;;;8.00;2.27;;;;;;;;;;4929120;29;20287;-67
2023/06/27 20:16:22;;;;;;;6.37;2.00;;;;;;;;;;4985133;28;20232;-67
2023/06/27 20:22:59;;;;;;;6.87;2.00;;;;;;;;;;4987663;28;20191;-67
2023/06/27 20:29:37;;;;;;;7.00;2.17;;;;;;;;;;4988380;28;20272;-67
2023/06/27 20:36:17;;;;;;;4.63;2.10;;;;;;;;;;4987788;28;20211;-67
2023/06/27 20:42:55;;;;;;;5.00;2.00;;;;;;;;;;4987908;28;20187;-67
2023/06/27 20:49:15;;;;;;;7.73;2.30;;;;;;;;;;4978632;28;20302;-67
2023/06/27 20:56:17;;;;;;;7.07;2.13;;;;;;;;;;4987815;28;20184;-67
2023/06/27 21:06:54;;;;;;;6.23;2.23;;;;;;;;;;4987698;28;20176;-67
2023/06/27 21:13:25;;;;;;;9.77;2.83;;;;;;;;;;4968155;28;20188;-67
2023/06/27 21:19:51;;;;;;;9.70;2.33;;;;;;;;;;4970315;28;20208;-68
2023/06/27 21:26:19;;;;;;;7.33;2.10;;;;;;;;;;4971855;28;20207;-67
2023/06/27 21:32:47;;;;;;;5.53;2.20;;;;;;;;;;4939570;28;20228;-69
2023/06/27 21:39:13;;;;;;;8.23;2.43;;;;;;;;;;4939567;28;20701;-68
2023/06/27 21:45:42;;;;;;;8.63;2.20;;;;;;;;;;4940044;28;20224;-68
2023/06/27 21:52:28;;;;;;;7.57;2.40;;;;;;;;;;4940028;28;20694;-68
2023/06/27 21:58:54;;;;;;;9.67;2.57;;;;;;;;;;4939211;28;20311;-68
2023/06/27 22:09:32;;;;;;;5.47;2.10;;;;;;;;;;4990710;28;20658;-68
2023/06/27 22:16:09;;;;;;;7.77;2.23;;;;;;;;;;4989826;28;20223;-68
2023/06/27 22:22:35;;;;;;;5.03;2.07;;;;;;;;;;4990137;28;20176;-68
2023/06/27 22:29:12;;;;;;;9.47;2.03;;;;;;;;;;4989879;28;20184;-68
2023/06/27 22:35:49;;;;;;;6.87;2.20;;;;;;;;;;4989836;28;20214;-68
2023/06/27 22:42:16;;;;;;;6.90;2.13;;;;;;;;;;4989818;28;20179;-68
2023/06/27 22:48:42;;;;;;;4.33;1.90;;;;;;;;;;4988767;28;20207;-68
2023/06/27 22:55:09;;;;;;;7.67;2.17;;;;;;;;;;4989377;28;20223;-68
2023/06/27 23:01:35;;;;;;;5.00;1.67;;;;;;;;;;4989400;28;20184;-68
2023/06/27 23:12:16;;;;;;;6.80;2.27;;;;;;;;;;4989185;28;20245;-68
2023/06/27 23:18:57;;;;;;;7.30;1.90;;;;;;;;;;4988496;28;20168;-68
2023/06/27 23:25:24;;;;;;;6.73;2.00;;;;;;;;;;4988762;28;20285;-65
2023/06/27 23:31:55;;;;;;;7.97;1.97;;;;;;;;;;4988822;28;20628;-66
2023/06/27 23:38:21;;;;;;;5.77;1.93;;;;;;;;;;4988265;28;20175;-68
2023/06/27 23:44:48;;;;;;;6.00;2.30;;;;;;;;;;4988495;28;20204;-68
